Time;durP1;ratioP1;P1;durP2;ratioP2;P2;SDS_P1;SDS_P2;PMS_P1;PMS_P2;Temp;Humidity;BMP_temperature;BMP_pressure;BME280_temperature;BME280_humidity;BME280_pressure;Samples;Min_cycle;Max_cycle;Signal;HPM_P1;HPM_P2
2024/01/03 00:01:27;;;;;;;1.87;0.60;;;24.10;56.90;;;;;;4958813;28;91805;-64
2024/01/03 00:03:58;;;;;;;1.20;0.90;;;24.10;57.60;;;;;;4958340;28;91610;-65
2024/01/03 00:06:27;;;;;;;1.03;0.70;;;24.10;56.70;;;;;;4957693;28;94213;-64
2024/01/03 00:08:55;;;;;;;1.53;0.50;;;24.00;57.30;;;;;;4965482;28;93923;-64
2024/01/03 00:11:23;;;;;;;1.60;0.70;;;24.00;57.00;;;;;;4967824;28;92944;-64
2024/01/03 00:14:06;;;;;;;1.90;0.60;;;24.00;56.80;;;;;;4968147;28;92107;-64
2024/01/03 00:16:37;;;;;;;3.90;1.00;;;24.00;57.00;;;;;;4966332;28;94162;-65
2024/01/03 00:19:05;;;;;;;1.33;0.90;;;24.00;57.50;;;;;;4963612;28;93841;-64
2024/01/03 00:21:34;;;;;;;4.77;1.17;;;24.00;57.90;;;;;;4968593;28;92058;-64
2024/01/03 00:24:05;;;;;;;3.63;1.47;;;24.00;57.40;;;;;;4966765;28;92088;-64
2024/01/03 00:26:34;;;;;;;2.67;1.07;;;23.90;58.30;;;;;;4965106;28;94304;-64
2024/01/03 00:29:02;;;;;;;1.40;1.00;;;24.00;57.70;;;;;;4963959;28;93863;-64
2024/01/03 00:31:36;;;;;;;1.03;0.93;;;23.90;58.30;;;;;;4946953;28;92054;-65
2024/01/03 00:34:06;;;;;;;0.60;0.60;;;23.90;59.00;;;;;;4944959;28;91951;-64
2024/01/03 00:36:34;;;;;;;1.43;1.10;;;23.90;58.20;;;;;;4945678;28;93817;-65
2024/01/03 00:39:02;;;;;;;1.47;1.00;;;23.80;58.00;;;;;;4947609;28;94822;-65
2024/01/03 00:41:30;;;;;;;3.10;1.20;;;23.80;58.60;;;;;;4948371;28;92082;-65
2024/01/03 00:43:58;;;;;;;2.53;1.40;;;23.80;58.00;;;;;;4943263;28;92110;-65
2024/01/03 00:46:26;;;;;;;1.37;1.27;;;23.80;58.40;;;;;;4947390;28;94469;-64
2024/01/03 00:48:55;;;;;;;3.40;1.63;;;23.80;57.70;;;;;;4948205;28;93971;-65
2024/01/03 00:51:24;;;;;;;2.63;1.80;;;23.70;58.10;;;;;;4949531;28;92073;-64
2024/01/03 00:53:52;;;;;;;2.47;1.37;;;23.70;58.50;;;;;;4947155;28;91339;-65
2024/01/03 00:56:20;;;;;;;3.10;1.30;;;23.70;58.90;;;;;;4950439;28;94127;-65
2024/01/03 00:58:48;;;;;;;3.23;1.60;;;23.70;58.80;;;;;;4950776;28;93866;-64
2024/01/03 01:01:16;;;;;;;4.73;1.67;;;23.60;58.60;;;;;;4948931;28;93024;-65
2024/01/03 01:03:44;;;;;;;2.20;1.13;;;23.60;58.70;;;;;;4948845;28;92202;-65
2024/01/03 01:06:14;;;;;;;5.57;2.40;;;23.60;58.80;;;;;;4949352;28;94418;-65
2024/01/03 01:08:42;;;;;;;2.10;1.50;;;23.60;58.40;;;;;;4950167;28;93936;-64
2024/01/03 01:11:10;;;;;;;3.63;2.63;;;23.60;58.50;;;;;;4951720;28;92175;-65
2024/01/03 01:13:38;;;;;;;3.23;1.93;;;23.60;58.70;;;;;;4949932;28;92113;-65
2024/01/03 01:16:06;;;;;;;2.57;1.70;;;23.60;58.30;;;;;;4949987;28;94170;-65
2024/01/03 01:18:34;;;;;;;6.37;2.27;;;23.60;58.90;;;;;;4951809;28;94083;-65
2024/01/03 01:21:03;;;;;;;3.97;2.13;;;23.60;58.50;;;;;;4950802;28;92094;-65
2024/01/03 01:23:34;;;;;;;2.87;1.83;;;23.50;58.70;;;;;;4949656;28;92157;-65
2024/01/03 01:26:03;;;;;;;7.03;2.33;;;23.50;59.40;;;;;;4948777;28;94744;-64
2024/01/03 01:28:31;;;;;;;3.37;2.13;;;23.50;58.70;;;;;;4951077;28;93413;-64
2024/01/03 01:30:59;;;;;;;4.50;2.27;;;23.50;59.00;;;;;;4965077;28;93436;-65
2024/01/03 01:33:27;;;;;;;2.10;1.73;;;23.50;58.50;;;;;;4969146;28;92471;-65
2024/01/03 01:35:55;;;;;;;4.30;2.30;;;23.50;59.90;;;;;;4965740;28;94073;-65
2024/01/03 01:38:23;;;;;;;2.30;1.70;;;23.50;60.10;;;;;;4969752;28;93908;-65
2024/01/03 01:40:53;;;;;;;7.40;3.00;;;23.50;60.70;;;;;;4970488;28;91985;-64
2024/01/03 01:43:21;;;;;;;2.63;1.70;;;23.40;59.60;;;;;;4969140;28;91206;-64
2024/01/03 01:45:49;;;;;;;8.17;2.67;;;23.50;60.80;;;;;;4968123;28;93937;-64
2024/01/03 01:48:17;;;;;;;8.00;2.40;;;23.40;61.30;;;;;;4968144;28;93934;-64
2024/01/03 01:50:45;;;;;;;3.10;2.63;;;23.40;61.80;;;;;;4968484;28;93039;-64
2024/01/03 01:53:13;;;;;;;3.97;2.23;;;23.40;62.10;;;;;;4970127;28;92713;-64
2024/01/03 01:55:41;;;;;;;5.83;3.03;;;23.40;60.50;;;;;;4968080;28;94130;-64
2024/01/03 01:58:11;;;;;;;4.40;2.57;;;23.40;61.50;;;;;;4968319;28;93846;-65
2024/01/03 02:00:39;;;;;;;3.10;2.33;;;23.40;61.50;;;;;;4966392;28;92545;-64
2024/01/03 02:03:07;;;;;;;8.17;3.30;;;23.40;62.00;;;;;;4967116;28;91990;-65
2024/01/03 02:05:37;;;;;;;6.57;2.83;;;23.30;61.40;;;;;;4969143;28;95369;-65
2024/01/03 02:08:07;;;;;;;4.60;3.43;;;23.30;62.30;;;;;;4969554;28;96578;-64
2024/01/03 02:10:36;;;;;;;4.80;2.50;;;23.30;61.30;;;;;;4965099;28;92027;-65
2024/01/03 02:13:04;;;;;;;5.90;2.93;;;23.20;60.50;;;;;;4968762;28;92225;-65
2024/01/03 02:15:33;;;;;;;5.07;3.23;;;23.30;62.30;;;;;;4966726;28;95151;-64
2024/01/03 02:18:01;;;;;;;3.80;3.10;;;23.30;60.50;;;;;;4967815;28;93460;-64
2024/01/03 02:20:32;;;;;;;3.73;2.50;;;23.20;61.50;;;;;;4968035;28;93060;-64
2024/01/03 02:23:02;;;;;;;3.93;2.83;;;23.20;61.80;;;;;;4970406;28;92052;-64
2024/01/03 02:25:30;;;;;;;9.87;3.20;;;23.20;62.10;;;;;;4968952;28;94060;-64
2024/01/03 02:27:58;;;;;;;6.87;3.33;;;23.20;61.40;;;;;;4967204;28;93872;-64
2024/01/03 02:30:26;;;;;;;4.33;2.83;;;23.20;63.40;;;;;;4963112;28;92106;-65
2024/01/03 02:32:54;;;;;;;6.27;3.37;;;23.20;61.30;;;;;;4959070;28;91359;-64
2024/01/03 02:35:22;;;;;;;7.37;3.53;;;23.20;61.30;;;;;;4953807;28;92900;-64
2024/01/03 02:37:50;;;;;;;3.43;2.90;;;23.20;62.70;;;;;;4958245;28;93874;-64
2024/01/03 02:40:19;;;;;;;6.83;3.20;;;23.20;63.00;;;;;;4958404;28;92973;-64
2024/01/03 02:42:47;;;;;;;3.80;2.77;;;23.20;65.20;;;;;;4958789;28;93160;-64
2024/01/03 02:45:15;;;;;;;4.70;2.57;;;23.10;64.00;;;;;;4958756;28;92866;-64
2024/01/03 02:47:43;;;;;;;5.13;3.80;;;23.20;64.40;;;;;;4958993;28;93760;-64
2024/01/03 02:50:11;;;;;;;3.60;3.13;;;23.20;64.40;;;;;;4959202;28;92058;-64
2024/01/03 02:52:40;;;;;;;6.10;2.90;;;23.10;63.80;;;;;;4958711;28;92059;-65
2024/01/03 02:55:08;;;;;;;5.67;2.43;;;23.10;63.50;;;;;;4958365;28;94069;-64
2024/01/03 02:57:37;;;;;;;7.93;3.20;;;23.10;63.50;;;;;;4958920;28;93835;-64
2024/01/03 03:00:10;;;;;;;5.93;2.73;;;23.10;63.20;;;;;;4959450;28;92071;-64
2024/01/03 03:02:38;;;;;;;4.80;2.73;;;23.10;62.20;;;;;;4959297;28;91940;-64
2024/01/03 03:05:06;;;;;;;6.50;3.73;;;23.10;62.70;;;;;;4958919;28;95082;-64
2024/01/03 03:07:34;;;;;;;8.43;3.80;;;23.10;63.50;;;;;;4958905;28;94797;-64
2024/01/03 03:10:02;;;;;;;4.97;2.13;;;23.10;63.50;;;;;;4959304;28;92040;-64
2024/01/03 03:12:30;;;;;;;7.27;2.60;;;23.10;63.20;;;;;;4958562;28;92693;-64
2024/01/03 03:14:59;;;;;;;5.63;3.70;;;23.00;63.90;;;;;;4958181;28;92956;-64
2024/01/03 03:17:28;;;;;;;5.47;2.83;;;23.00;64.20;;;;;;4958065;28;93619;-64
2024/01/03 03:19:56;;;;;;;2.93;2.53;;;23.00;63.00;;;;;;4958683;28;92059;-65
2024/01/03 03:22:24;;;;;;;11.60;3.80;;;23.00;63.10;;;;;;4958660;28;91305;-64
2024/01/03 03:24:52;;;;;;;4.30;2.77;;;23.00;63.80;;;;;;4957931;28;94282;-64
2024/01/03 03:27:20;;;;;;;5.90;2.93;;;23.00;63.20;;;;;;4958196;28;93912;-65
2024/01/03 03:29:49;;;;;;;5.63;3.63;;;23.00;63.60;;;;;;4958548;28;93006;-64
2024/01/03 03:32:19;;;;;;;3.40;2.40;;;23.00;63.50;;;;;;4959084;28;92102;-65
2024/01/03 03:34:47;;;;;;;10.47;3.10;;;23.00;64.70;;;;;;4958385;28;94067;-64
2024/01/03 03:37:15;;;;;;;3.63;2.47;;;23.00;63.50;;;;;;4957234;28;94215;-64
2024/01/03 03:39:43;;;;;;;6.37;2.93;;;23.00;63.90;;;;;;4942840;28;93191;-64
2024/01/03 03:42:11;;;;;;;6.53;3.23;;;23.00;62.60;;;;;;4916881;28;92095;-64
2024/01/03 03:44:40;;;;;;;6.00;2.80;;;22.90;63.50;;;;;;4916675;28;94187;-63
2024/01/03 03:47:09;;;;;;;4.70;2.87;;;22.90;64.50;;;;;;4916827;28;93851;-64
2024/01/03 03:49:38;;;;;;;5.43;3.03;;;22.90;63.50;;;;;;4946006;28;92144;-64
2024/01/03 03:52:06;;;;;;;5.40;2.70;;;22.90;65.70;;;;;;4954849;28;92148;-64
2024/01/03 03:54:34;;;;;;;5.37;2.63;;;22.80;63.90;;;;;;4955457;28;95034;-64
2024/01/03 03:57:02;;;;;;;4.13;2.70;;;22.90;65.40;;;;;;4955576;28;93636;-64
2024/01/03 03:59:31;;;;;;;5.77;2.60;;;22.80;65.50;;;;;;4956150;28;92742;-64
2024/01/03 04:01:59;;;;;;;5.90;2.90;;;22.90;67.30;;;;;;4955265;28;92546;-64
2024/01/03 04:04:27;;;;;;;5.10;2.67;;;22.80;66.10;;;;;;4954833;28;93280;-64
2024/01/03 04:06:56;;;;;;;3.97;2.60;;;22.80;65.70;;;;;;4955041;28;93837;-64
2024/01/03 04:09:26;;;;;;;4.50;2.83;;;22.80;65.50;;;;;;4938980;28;92381;-64
2024/01/03 04:11:54;;;;;;;5.57;2.47;;;22.80;63.60;;;;;;4933517;28;91371;-64
2024/01/03 04:14:22;;;;;;;8.53;2.63;;;22.80;64.90;;;;;;4935092;28;94179;-64
2024/01/03 04:16:50;;;;;;;3.80;2.37;;;22.80;65.20;;;;;;4935344;28;93686;-64
2024/01/03 04:19:18;;;;;;;5.23;3.03;;;22.80;65.40;;;;;;4934892;28;92953;-64
2024/01/03 04:21:46;;;;;;;3.13;2.37;;;22.70;66.50;;;;;;4935246;28;92112;-64
2024/01/03 04:24:16;;;;;;;4.63;2.30;;;22.80;66.40;;;;;;4935234;28;94138;-64
2024/01/03 04:26:44;;;;;;;3.10;2.03;;;22.80;67.70;;;;;;4937221;28;93836;-65
2024/01/03 04:29:12;;;;;;;5.03;2.70;;;22.80;65.00;;;;;;4939608;28;92127;-64
2024/01/03 04:31:40;;;;;;;3.83;2.40;;;22.80;64.20;;;;;;4958485;28;92029;-64
2024/01/03 04:34:08;;;;;;;4.73;2.17;;;22.70;66.30;;;;;;4957891;28;96395;-64
2024/01/03 04:36:37;;;;;;;5.93;2.03;;;22.70;63.50;;;;;;4958975;28;93761;-64
2024/01/03 04:39:05;;;;;;;2.27;1.97;;;22.70;65.00;;;;;;4958787;28;92153;-64
2024/01/03 04:41:34;;;;;;;3.60;2.10;;;22.70;63.80;;;;;;4958278;28;92331;-65
2024/01/03 04:44:02;;;;;;;2.40;2.03;;;22.70;63.70;;;;;;4955686;28;93592;-64
2024/01/03 04:46:30;;;;;;;6.23;2.97;;;22.70;66.40;;;;;;4958025;28;94964;-64
2024/01/03 04:48:58;;;;;;;2.93;1.80;;;22.70;66.40;;;;;;4958026;28;93188;-64
2024/01/03 04:51:27;;;;;;;5.10;2.20;;;22.70;64.60;;;;;;4957974;28;92082;-64
2024/01/03 04:53:55;;;;;;;4.07;1.93;;;22.70;63.00;;;;;;4958127;28;94051;-64
2024/01/03 04:56:24;;;;;;;2.70;1.90;;;22.70;64.30;;;;;;4957884;28;92961;-64
2024/01/03 04:58:54;;;;;;;6.13;1.70;;;22.70;64.10;;;;;;4958620;28;92236;-64
2024/01/03 05:01:22;;;;;;;4.27;1.97;;;22.70;65.60;;;;;;4957702;28;91350;-64
2024/01/03 05:03:50;;;;;;;7.33;2.70;;;22.70;66.10;;;;;;4957240;28;93056;-64
2024/01/03 05:06:18;;;;;;;3.10;1.93;;;22.60;66.50;;;;;;4957057;28;93920;-65
2024/01/03 05:08:46;;;;;;;3.57;2.03;;;22.70;69.00;;;;;;4955684;28;93065;-64
2024/01/03 05:11:14;;;;;;;3.97;2.73;;;22.60;67.20;;;;;;4957751;28;92022;-65
2024/01/03 05:13:44;;;;;;;7.40;2.60;;;22.60;67.80;;;;;;4960009;28;94152;-64
2024/01/03 05:16:14;;;;;;;3.00;2.07;;;22.60;66.50;;;;;;4960391;28;93811;-64
2024/01/03 05:18:42;;;;;;;4.10;2.43;;;22.60;58.40;;;;;;4970212;28;93455;-64
2024/01/03 05:21:10;;;;;;;2.63;2.10;;;22.60;58.90;;;;;;4970646;28;92169;-65
2024/01/03 05:23:38;;;;;;;6.07;2.00;;;22.60;59.10;;;;;;4960225;28;93024;-64
2024/01/03 05:26:06;;;;;;;2.90;1.83;;;22.60;59.50;;;;;;4960302;28;93918;-64
2024/01/03 05:28:34;;;;;;;2.23;1.90;;;22.60;59.70;;;;;;4960785;28;91908;-64
2024/01/03 05:31:02;;;;;;;4.47;2.20;;;22.60;59.80;;;;;;4961204;28;92061;-65
2024/01/03 05:33:31;;;;;;;1.60;1.43;;;22.70;60.10;;;;;;4958682;28;95353;-64
2024/01/03 05:35:59;;;;;;;4.33;2.10;;;22.70;60.70;;;;;;4967944;28;94806;-64
2024/01/03 05:38:27;;;;;;;3.80;1.80;;;22.80;61.40;;;;;;4979468;28;92602;-64
2024/01/03 05:40:55;;;;;;;6.53;2.00;;;22.80;61.80;;;;;;4973385;28;92111;-64
2024/01/03 05:43:24;;;;;;;1.17;1.07;;;23.00;63.10;;;;;;4979258;28;92941;-64
2024/01/03 05:45:52;;;;;;;1.20;1.10;;;23.20;63.60;;;;;;4975021;28;93915;-64
2024/01/03 05:48:20;;;;;;;1.73;1.53;;;23.40;63.50;;;;;;4978483;28;91892;-64
2024/01/03 05:50:50;;;;;;;1.73;1.43;;;23.50;65.10;;;;;;4967865;28;91316;-64
2024/01/03 05:53:18;;;;;;;2.40;1.30;;;23.70;64.00;;;;;;4960512;28;94329;-64
2024/01/03 05:55:46;;;;;;;1.80;1.47;;;23.80;64.50;;;;;;4960522;28;96496;-64
2024/01/03 05:58:14;;;;;;;4.40;1.70;;;23.90;64.90;;;;;;4967864;28;93247;-64
2024/01/03 06:00:42;;;;;;;3.80;1.20;;;23.90;67.00;;;;;;4977667;28;92188;-64
2024/01/03 06:03:10;;;;;;;2.13;1.20;;;24.00;57.10;;;;;;4959957;28;95635;-64
2024/01/03 06:05:39;;;;;;;1.77;1.30;;;24.00;57.10;;;;;;4959591;28;94001;-64
2024/01/03 06:08:08;;;;;;;5.37;1.77;;;24.00;57.10;;;;;;4960349;28;92043;-64
2024/01/03 06:10:37;;;;;;;1.67;1.33;;;24.10;57.50;;;;;;4959849;28;92097;-64
2024/01/03 06:13:05;;;;;;;2.13;1.30;;;24.00;57.10;;;;;;4959703;28;94219;-64
2024/01/03 06:15:33;;;;;;;2.53;1.33;;;23.90;58.00;;;;;;4959444;28;93663;-64
2024/01/03 06:18:01;;;;;;;2.33;1.43;;;23.90;57.30;;;;;;4960208;28;92047;-64
2024/01/03 06:20:29;;;;;;;2.00;0.83;;;23.90;57.50;;;;;;4959708;28;92164;-64
2024/01/03 06:22:57;;;;;;;4.43;1.50;;;23.80;57.50;;;;;;4959327;28;95101;-64
2024/01/03 06:25:27;;;;;;;3.60;1.33;;;23.80;57.50;;;;;;4959447;28;94842;-64
2024/01/03 06:27:55;;;;;;;1.90;1.23;;;23.80;57.60;;;;;;4959743;28;92046;-64
2024/01/03 06:30:23;;;;;;;2.60;1.00;;;23.70;57.50;;;;;;4958715;28;92059;-64
2024/01/03 06:32:51;;;;;;;2.97;1.40;;;23.70;57.60;;;;;;4959279;28;94199;-64
2024/01/03 06:35:19;;;;;;;3.00;1.23;;;23.60;57.80;;;;;;4959053;28;93954;-64
2024/01/03 06:37:47;;;;;;;5.17;1.57;;;23.60;57.90;;;;;;4959912;28;92078;-64
2024/01/03 06:40:15;;;;;;;3.83;1.67;;;23.60;57.70;;;;;;4960342;28;91185;-64
2024/01/03 06:42:45;;;;;;;4.33;1.43;;;23.60;57.90;;;;;;4959454;28;94157;-64
2024/01/03 06:45:13;;;;;;;0.93;0.93;;;23.50;57.80;;;;;;4959538;28;93922;-64
2024/01/03 06:47:42;;;;;;;1.13;0.87;;;23.50;57.80;;;;;;4959517;28;92895;-64
2024/01/03 06:50:13;;;;;;;0.80;0.80;;;23.50;57.90;;;;;;4958579;28;91916;-64
2024/01/03 06:52:41;;;;;;;2.90;1.13;;;23.40;57.90;;;;;;4959559;28;93361;-64
2024/01/03 06:55:09;;;;;;;1.67;0.97;;;23.40;57.70;;;;;;4959568;28;93926;-64
2024/01/03 06:57:37;;;;;;;2.07;0.93;;;23.40;57.90;;;;;;4960091;28;91982;-64
2024/01/03 07:00:07;;;;;;;1.33;1.17;;;23.40;57.80;;;;;;4958993;28;92055;-64
2024/01/03 07:02:35;;;;;;;1.87;0.83;;;23.40;57.90;;;;;;4958559;28;94217;-64
2024/01/03 07:05:05;;;;;;;1.53;0.73;;;23.40;57.90;;;;;;4959046;28;93928;-64
2024/01/03 07:07:33;;;;;;;1.57;0.73;;;23.30;57.90;;;;;;4959178;28;91935;-64
2024/01/03 07:10:01;;;;;;;2.30;0.87;;;23.30;57.90;;;;;;4958987;28;92050;-64
2024/01/03 07:12:29;;;;;;;3.87;1.10;;;23.30;57.90;;;;;;4958049;28;95143;-64
2024/01/03 07:14:57;;;;;;;4.27;0.97;;;23.30;58.00;;;;;;4958776;28;94796;-64
2024/01/03 07:17:26;;;;;;;1.47;1.00;;;23.20;58.10;;;;;;4959130;28;92015;-64
2024/01/03 07:19:54;;;;;;;0.87;0.60;;;23.20;58.20;;;;;;4958715;28;92638;-64
2024/01/03 07:22:22;;;;;;;1.33;1.10;;;23.20;58.30;;;;;;4958467;28;94180;-64
2024/01/03 07:24:50;;;;;;;1.83;0.77;;;23.20;58.30;;;;;;4958619;28;93840;-64
2024/01/03 07:27:18;;;;;;;2.57;1.30;;;23.20;58.40;;;;;;4958648;28;91990;-64
2024/01/03 07:29:48;;;;;;;2.17;0.80;;;23.10;58.20;;;;;;4958868;28;91409;-64
2024/01/03 07:32:17;;;;;;;0.80;0.80;;;23.10;58.20;;;;;;4958962;28;94291;-64
2024/01/03 07:34:47;;;;;;;2.40;0.90;;;23.10;58.50;;;;;;4958285;28;93941;-64
2024/01/03 07:37:15;;;;;;;0.87;0.87;;;23.10;58.40;;;;;;4956970;28;93018;-64
2024/01/03 07:39:43;;;;;;;1.17;0.70;;;23.10;58.40;;;;;;4958244;28;92003;-64
2024/01/03 07:42:11;;;;;;;0.77;0.60;;;23.00;57.90;;;;;;4958551;28;97262;-65
2024/01/03 07:44:41;;;;;;;1.00;0.73;;;23.10;58.40;;;;;;4964807;28;94006;-65
2024/01/03 07:47:10;;;;;;;1.07;0.80;;;23.00;58.30;;;;;;4978491;28;91893;-64
2024/01/03 07:49:38;;;;;;;2.50;1.00;;;23.00;58.80;;;;;;4976555;28;92145;-64
2024/01/03 07:52:08;;;;;;;4.80;0.60;;;23.00;58.60;;;;;;4958781;28;94170;-64
2024/01/03 07:54:36;;;;;;;2.03;0.80;;;23.10;59.00;;;;;;4961646;28;94105;-64
2024/01/03 07:57:05;;;;;;;2.67;0.70;;;23.10;59.00;;;;;;4957198;28;93746;-64
2024/01/03 07:59:33;;;;;;;4.63;2.23;;;23.10;59.00;;;;;;4964223;28;92145;-64
2024/01/03 08:02:01;;;;;;;10.93;6.47;;;23.20;59.30;;;;;;4957567;28;95311;-64
2024/01/03 08:04:29;;;;;;;10.00;4.33;;;23.30;59.90;;;;;;4958378;28;94879;-64
2024/01/03 08:06:57;;;;;;;8.00;3.87;;;23.30;59.40;;;;;;4959865;28;92079;-65
2024/01/03 08:09:27;;;;;;;8.03;3.30;;;23.30;59.40;;;;;;4957183;28;92098;-65
2024/01/03 08:11:54;;;;;;;8.07;3.20;;;23.30;59.40;;;;;;4956239;28;94159;-64
2024/01/03 08:14:23;;;;;;;3.17;2.27;;;23.30;59.50;;;;;;4954258;28;93736;-64
2024/01/03 08:16:51;;;;;;;7.53;2.37;;;23.30;59.70;;;;;;4961680;28;92020;-64
2024/01/03 08:19:19;;;;;;;6.93;2.87;;;23.40;59.60;;;;;;4974948;28;91364;-64
2024/01/03 08:21:48;;;;;;;5.33;1.93;;;23.30;59.90;;;;;;4964696;28;94163;-65
2024/01/03 08:24:16;;;;;;;2.60;1.67;;;23.30;59.80;;;;;;4958865;28;94074;-65
2024/01/03 08:26:46;;;;;;;4.40;1.90;;;23.20;59.70;;;;;;4962181;28;93636;-64
2024/01/03 08:29:15;;;;;;;3.83;2.50;;;23.20;59.80;;;;;;4961546;28;93155;-65
2024/01/03 08:31:43;;;;;;;6.63;2.23;;;23.20;60.00;;;;;;4970213;28;93056;-64
2024/01/03 08:34:11;;;;;;;3.67;1.30;;;23.20;60.20;;;;;;4965583;28;93772;-64
2024/01/03 08:36:39;;;;;;;2.27;1.63;;;23.20;60.00;;;;;;4964031;28;92095;-64
2024/01/03 08:39:07;;;;;;;3.67;1.67;;;23.20;60.30;;;;;;4959561;28;92062;-64
2024/01/03 08:41:36;;;;;;;5.40;1.97;;;23.20;60.20;;;;;;4961964;28;94250;-64
2024/01/03 08:44:06;;;;;;;4.50;1.80;;;23.20;60.30;;;;;;4966550;28;93874;-65
2024/01/03 08:46:34;;;;;;;2.03;1.00;;;23.10;60.60;;;;;;4957031;28;91995;-65
2024/01/03 08:49:04;;;;;;;2.60;1.83;;;23.10;60.60;;;;;;4955814;28;92185;-65
2024/01/03 08:51:32;;;;;;;5.00;1.50;;;23.10;60.80;;;;;;4957132;28;95271;-64
2024/01/03 08:54:00;;;;;;;2.40;1.30;;;23.10;60.90;;;;;;4962437;28;93216;-65
2024/01/03 08:56:28;;;;;;;2.27;1.20;;;23.10;60.90;;;;;;4963982;28;92047;-65
2024/01/03 08:58:56;;;;;;;2.10;1.43;;;23.10;60.90;;;;;;4959664;28;93040;-64
2024/01/03 09:01:27;;;;;;;1.73;1.43;;;23.10;61.40;;;;;;4953383;28;94233;-64
2024/01/03 09:03:55;;;;;;;2.00;1.40;;;23.00;61.10;;;;;;4958450;28;93784;-65
2024/01/03 09:06:25;;;;;;;2.47;1.53;;;23.00;61.50;;;;;;4966361;28;91863;-65
2024/01/03 09:08:54;;;;;;;5.03;1.30;;;23.00;61.40;;;;;;4958599;28;91501;-65
2024/01/03 09:11:24;;;;;;;2.77;1.57;;;23.00;61.70;;;;;;4958440;28;94253;-65
2024/01/03 09:13:52;;;;;;;3.60;1.60;;;23.00;62.10;;;;;;4970211;28;94036;-64
2024/01/03 09:16:22;;;;;;;2.43;1.50;;;23.00;62.10;;;;;;4966751;28;93213;-65
2024/01/03 09:18:52;;;;;;;3.43;1.70;;;23.00;62.60;;;;;;4963204;28;92111;-64
2024/01/03 09:21:20;;;;;;;4.53;1.70;;;23.10;63.20;;;;;;4962563;28;94197;-64
2024/01/03 09:23:48;;;;;;;3.33;1.60;;;23.00;63.60;;;;;;4969415;28;92761;-64
2024/01/03 09:26:17;;;;;;;2.73;1.40;;;23.00;64.20;;;;;;4967986;28;92614;-64
2024/01/03 09:28:47;;;;;;;4.43;1.83;;;23.00;64.90;;;;;;4967170;28;93814;-64
2024/01/03 09:31:15;;;;;;;2.63;1.60;;;23.00;65.80;;;;;;4968246;28;94135;-64
2024/01/03 09:33:43;;;;;;;3.80;1.47;;;23.00;66.10;;;;;;4970389;28;94942;-64
2024/01/03 09:36:19;;;;;;;2.93;1.57;;;23.00;68.10;;;;;;4969682;28;92074;-64
2024/01/03 09:38:53;;;;;;;2.53;1.67;;;23.00;68.90;;;;;;4968038;28;92653;-64
2024/01/03 09:41:22;;;;;;;3.73;1.97;;;23.00;71.00;;;;;;4970617;28;95122;-64
2024/01/03 09:43:52;;;;;;;2.47;1.60;;;22.90;71.10;;;;;;4972477;28;95120;-64
2024/01/03 09:46:21;;;;;;;4.10;2.57;;;22.90;71.00;;;;;;4972514;28;93025;-63
2024/01/03 09:48:49;;;;;;;2.27;1.50;;;22.90;70.00;;;;;;4975023;28;93373;-64
2024/01/03 09:51:20;;;;;;;3.80;2.07;;;22.90;70.10;;;;;;4975478;28;94152;-62
2024/01/03 09:53:49;;;;;;;4.90;2.67;;;22.90;71.10;;;;;;4972493;28;92753;-64
2024/01/03 09:56:17;;;;;;;1.70;1.60;;;22.90;72.40;;;;;;4977709;28;92547;-64
2024/01/03 09:58:46;;;;;;;4.03;2.23;;;23.00;68.90;;;;;;4974840;28;91444;-64
2024/01/03 10:01:14;;;;;;;5.47;2.73;;;23.00;69.90;;;;;;4964480;28;94206;-64
2024/01/03 10:03:42;;;;;;;12.27;2.37;;;23.00;71.30;;;;;;4961977;28;93834;-64
2024/01/03 10:06:13;;;;;;;5.27;2.00;;;23.10;72.10;;;;;;4965857;28;93174;-64
2024/01/03 10:08:58;;;;;;;1.77;1.53;;;23.20;69.10;;;;;;4964590;28;92586;-64
2024/01/03 10:11:27;;;;;;;4.83;2.30;;;23.40;70.70;;;;;;4967130;28;94251;-64
2024/01/03 10:13:57;;;;;;;4.53;2.17;;;23.60;70.50;;;;;;4964106;28;92751;-64
2024/01/03 10:16:25;;;;;;;3.33;2.20;;;23.70;72.10;;;;;;4968348;28;92134;-64
2024/01/03 10:19:10;;;;;;;3.73;2.47;;;23.80;74.30;;;;;;4970338;28;92223;-64
2024/01/03 10:21:40;;;;;;;5.53;2.70;;;23.80;70.50;;;;;;4970918;28;94111;-64
2024/01/03 10:24:11;;;;;;;4.87;2.80;;;23.90;70.20;;;;;;4969280;28;94209;-64
2024/01/03 10:26:39;;;;;;;4.50;2.83;;;23.90;70.10;;;;;;4971709;28;92110;-64
2024/01/03 10:29:10;;;;;;;4.60;2.50;;;24.00;70.00;;;;;;4969145;28;92063;-64
2024/01/03 10:31:38;;;;;;;2.87;2.10;;;24.00;70.40;;;;;;4973223;28;94959;-64
2024/01/03 10:34:07;;;;;;;4.73;2.70;;;24.10;69.80;;;;;;4969425;28;94777;-64
2024/01/03 10:36:35;;;;;;;4.50;2.60;;;24.20;71.30;;;;;;4972249;28;92103;-64
2024/01/03 10:39:04;;;;;;;4.87;2.27;;;24.30;71.50;;;;;;4970051;28;92161;-64
2024/01/03 10:41:33;;;;;;;3.87;2.03;;;24.40;70.10;;;;;;4968459;28;94293;-64
2024/01/03 10:44:02;;;;;;;7.40;3.07;;;24.60;68.00;;;;;;4969031;28;93914;-64
2024/01/03 10:46:30;;;;;;;4.67;2.50;;;24.70;72.10;;;;;;4963232;28;92081;-64
2024/01/03 10:48:58;;;;;;;2.73;2.03;;;24.80;73.50;;;;;;4970514;28;92354;-64
2024/01/03 10:51:26;;;;;;;5.33;3.57;;;24.90;74.00;;;;;;4981751;28;93164;-64
2024/01/03 10:53:58;;;;;;;8.27;3.20;;;25.00;73.70;;;;;;4963759;28;94126;-63
2024/01/03 10:56:26;;;;;;;19.67;4.83;;;25.00;70.50;;;;;;4959188;28;92771;-64
2024/01/03 10:58:56;;;;;;;10.30;4.27;;;25.10;74.00;;;;;;4974356;28;91865;-64
2024/01/03 11:01:26;;;;;;;8.77;4.47;;;25.10;69.30;;;;;;4979061;28;92906;-64
2024/01/03 11:04:01;;;;;;;9.20;4.60;;;25.00;75.70;;;;;;4960617;28;93860;-64
2024/01/03 11:06:32;;;;;;;8.23;4.73;;;25.00;75.20;;;;;;4959539;28;92662;-64
2024/01/03 11:09:01;;;;;;;5.13;4.00;;;24.90;73.60;;;;;;4958868;28;92856;-64
2024/01/03 11:11:30;;;;;;;5.33;2.93;;;24.90;75.10;;;;;;4958696;28;94156;-64
2024/01/03 11:14:00;;;;;;;9.17;3.57;;;24.80;73.20;;;;;;4960364;28;93923;-64
2024/01/03 11:16:36;;;;;;;5.70;2.93;;;24.60;72.40;;;;;;4958555;28;92080;-65
2024/01/03 11:19:05;;;;;;;6.03;3.30;;;24.60;73.70;;;;;;4962274;28;92169;-64
2024/01/03 11:21:43;;;;;;;12.40;3.20;;;24.60;71.60;;;;;;4961595;28;95050;-64
2024/01/03 11:24:47;;;;;;;5.20;3.40;;;24.50;71.40;;;;;;4956026;28;95249;-64
2024/01/03 11:27:19;;;;;;;6.30;2.87;;;24.40;72.30;;;;;;4910315;28;93069;-64
2024/01/03 11:29:53;;;;;;;7.50;2.87;;;24.30;74.80;;;;;;4957902;28;92073;-64
2024/01/03 11:32:29;;;;;;;11.63;3.30;;;24.30;71.40;;;;;;4957357;28;94170;-64
2024/01/03 11:35:06;;;;;;;5.83;2.97;;;24.20;72.60;;;;;;4955879;28;94043;-64
2024/01/03 11:37:38;;;;;;;9.23;4.47;;;24.20;75.00;;;;;;4957734;28;92190;-64
2024/01/03 11:40:08;;;;;;;6.17;3.00;;;24.20;74.40;;;;;;4955375;28;91260;-64
2024/01/03 11:42:38;;;;;;;8.27;3.00;;;24.10;75.30;;;;;;4954724;28;94395;-64
2024/01/03 11:45:09;;;;;;;6.93;3.10;;;24.10;71.30;;;;;;4957387;28;93921;-64
2024/01/03 11:47:39;;;;;;;7.60;2.83;;;24.00;72.60;;;;;;4955125;28;93045;-63
2024/01/03 11:50:08;;;;;;;5.40;2.73;;;24.00;69.90;;;;;;4957889;28;92176;-64
2024/01/03 11:52:37;;;;;;;5.47;3.10;;;24.00;72.60;;;;;;4955620;28;94175;-64
2024/01/03 11:55:07;;;;;;;5.17;3.40;;;24.00;71.00;;;;;;4957445;28;93881;-64
2024/01/03 11:57:36;;;;;;;6.97;4.23;;;23.90;74.00;;;;;;4957683;28;92033;-64
2024/01/03 12:00:05;;;;;;;9.97;4.43;;;23.90;73.50;;;;;;4957947;28;92068;-64
2024/01/03 12:02:35;;;;;;;7.90;3.97;;;23.80;70.70;;;;;;4957644;28;94125;-64
2024/01/03 12:05:04;;;;;;;6.87;4.43;;;23.80;73.80;;;;;;4957889;28;93930;-64
2024/01/03 12:07:33;;;;;;;7.47;3.20;;;23.80;71.10;;;;;;4957438;28;93036;-64
2024/01/03 12:10:01;;;;;;;9.27;4.27;;;23.80;72.10;;;;;;4957644;28;91919;-64
2024/01/03 12:12:29;;;;;;;4.93;2.87;;;23.70;73.60;;;;;;4956648;28;95121;-64
2024/01/03 12:14:57;;;;;;;5.97;2.40;;;23.70;75.10;;;;;;4957211;28;94776;-64
2024/01/03 12:17:27;;;;;;;6.33;3.70;;;23.70;73.10;;;;;;4957422;28;92118;-64
2024/01/03 12:20:06;;;;;;;8.70;3.10;;;23.60;71.80;;;;;;4954542;28;92156;-64
2024/01/03 12:22:35;;;;;;;9.73;3.10;;;23.60;73.90;;;;;;4956654;28;95842;-64
2024/01/03 12:25:03;;;;;;;4.60;2.23;;;23.60;72.10;;;;;;4956583;28;93768;-64
2024/01/03 12:27:33;;;;;;;4.20;2.57;;;23.60;74.00;;;;;;4957606;28;91891;-64
2024/01/03 12:30:19;;;;;;;9.03;3.63;;;23.50;74.30;;;;;;4957353;28;91462;-64
2024/01/03 12:32:48;;;;;;;7.73;3.07;;;23.40;73.90;;;;;;4955938;28;94249;-64
2024/01/03 12:35:18;;;;;;;8.13;3.27;;;23.40;70.80;;;;;;4956448;28;93612;-64
2024/01/03 12:37:47;;;;;;;11.30;3.83;;;23.40;74.70;;;;;;4956000;28;92877;-64
2024/01/03 12:40:19;;;;;;;5.57;2.60;;;23.40;73.50;;;;;;4956139;28;91890;-64
2024/01/03 12:42:46;;;;;;;4.50;2.23;;;23.40;72.30;;;;;;4955738;28;96408;-64
2024/01/03 12:45:14;;;;;;;7.17;2.67;;;23.40;72.80;;;;;;4955831;28;94162;-64
2024/01/03 12:47:42;;;;;;;10.73;3.13;;;23.30;73.00;;;;;;4958291;28;91971;-64
2024/01/03 12:50:10;;;;;;;3.90;2.73;;;23.30;74.70;;;;;;4960205;28;92068;-64
2024/01/03 12:52:40;;;;;;;7.33;2.57;;;23.30;75.80;;;;;;4960680;28;94388;-63
2024/01/03 12:55:11;;;;;;;7.60;3.70;;;23.30;74.80;;;;;;4960791;28;93858;-64